sensor_id;sensor_type;location;lat;lon;timestamp;P1;durP1;ratioP1;P2;durP2;ratioP2
30068;SDS011;16894;49.456;10.644;2023-04-19T00:01:46;46.40;;;41.97;;
30068;SDS011;16894;49.456;10.644;2023-04-19T00:04:12;46.13;;;41.90;;
30068;SDS011;16894;49.456;10.644;2023-04-19T00:09:06;44.95;;;40.58;;
30068;SDS011;16894;49.456;10.644;2023-04-19T00:11:32;44.58;;;40.03;;
30068;SDS011;16894;49.456;10.644;2023-04-19T00:14:16;44.72;;;40.63;;
30068;SDS011;16894;49.456;10.644;2023-04-19T00:17:00;44.30;;;36.78;;
30068;SDS011;16894;49.456;10.644;2023-04-19T00:19:26;36.50;;;32.77;;
30068;SDS011;16894;49.456;10.644;2023-04-19T00:21:51;39.70;;;35.93;;
30068;SDS011;16894;49.456;10.644;2023-04-19T00:24:17;36.40;;;32.80;;
30068;SDS011;16894;49.456;10.644;2023-04-19T00:26:42;37.23;;;33.70;;
30068;SDS011;16894;49.456;10.644;2023-04-19T00:29:08;37.17;;;33.37;;
30068;SDS011;16894;49.456;10.644;2023-04-19T00:34:00;37.33;;;33.92;;
30068;SDS011;16894;49.456;10.644;2023-04-19T00:36:26;37.50;;;34.10;;
30068;SDS011;16894;49.456;10.644;2023-04-19T00:38:52;37.88;;;33.88;;
30068;SDS011;16894;49.456;10.644;2023-04-19T00:41:17;39.23;;;35.30;;
30068;SDS011;16894;49.456;10.644;2023-04-19T00:43:43;40.67;;;36.97;;
30068;SDS011;16894;49.456;10.644;2023-04-19T00:46:08;40.33;;;36.40;;
30068;SDS011;16894;49.456;10.644;2023-04-19T00:48:34;39.38;;;35.45;;
30068;SDS011;16894;49.456;10.644;2023-04-19T00:51:00;41.03;;;36.92;;
30068;SDS011;16894;49.456;10.644;2023-04-19T00:53:26;38.60;;;34.78;;
30068;SDS011;16894;49.456;10.644;2023-04-19T00:55:52;38.20;;;34.17;;
30068;SDS011;16894;49.456;10.644;2023-04-19T00:58:21;36.55;;;33.03;;
30068;SDS011;16894;49.456;10.644;2023-04-19T01:00:47;36.58;;;32.53;;
30068;SDS011;16894;49.456;10.644;2023-04-19T01:03:13;35.00;;;31.15;;
30068;SDS011;16894;49.456;10.644;2023-04-19T01:05:40;35.65;;;31.92;;
30068;SDS011;16894;49.456;10.644;2023-04-19T01:08:06;35.90;;;32.40;;
30068;SDS011;16894;49.456;10.644;2023-04-19T01:10:32;34.35;;;30.75;;
30068;SDS011;16894;49.456;10.644;2023-04-19T01:12:58;33.83;;;30.23;;
30068;SDS011;16894;49.456;10.644;2023-04-19T01:15:24;32.40;;;29.17;;
30068;SDS011;16894;49.456;10.644;2023-04-19T01:17:50;34.40;;;30.98;;
30068;SDS011;16894;49.456;10.644;2023-04-19T01:20:16;31.42;;;28.00;;
30068;SDS011;16894;49.456;10.644;2023-04-19T01:22:42;34.80;;;28.50;;
30068;SDS011;16894;49.456;10.644;2023-04-19T01:25:07;32.13;;;26.80;;
30068;SDS011;16894;49.456;10.644;2023-04-19T01:27:34;31.05;;;27.85;;
30068;SDS011;16894;49.456;10.644;2023-04-19T01:29:59;31.60;;;28.17;;
30068;SDS011;16894;49.456;10.644;2023-04-19T01:32:25;32.35;;;28.90;;
30068;SDS011;16894;49.456;10.644;2023-04-19T01:34:51;38.90;;;29.97;;
30068;SDS011;16894;49.456;10.644;2023-04-19T01:37:17;33.88;;;30.25;;
30068;SDS011;16894;49.456;10.644;2023-04-19T01:39:43;32.00;;;28.55;;
30068;SDS011;16894;49.456;10.644;2023-04-19T01:42:09;33.60;;;30.20;;
30068;SDS011;16894;49.456;10.644;2023-04-19T01:44:35;32.33;;;28.85;;
30068;SDS011;16894;49.456;10.644;2023-04-19T01:47:00;33.10;;;29.63;;
30068;SDS011;16894;49.456;10.644;2023-04-19T01:49:26;32.17;;;28.00;;
30068;SDS011;16894;49.456;10.644;2023-04-19T01:51:52;31.03;;;27.70;;
30068;SDS011;16894;49.456;10.644;2023-04-19T01:54:17;32.87;;;29.43;;
30068;SDS011;16894;49.456;10.644;2023-04-19T01:56:43;32.93;;;28.27;;
30068;SDS011;16894;49.456;10.644;2023-04-19T01:59:08;33.07;;;29.60;;
30068;SDS011;16894;49.456;10.644;2023-04-19T02:01:34;34.13;;;27.70;;
30068;SDS011;16894;49.456;10.644;2023-04-19T02:04:01;32.40;;;29.00;;
30068;SDS011;16894;49.456;10.644;2023-04-19T02:06:30;32.13;;;28.17;;
30068;SDS011;16894;49.456;10.644;2023-04-19T02:08:55;32.50;;;29.23;;
30068;SDS011;16894;49.456;10.644;2023-04-19T02:11:21;32.90;;;29.53;;
30068;SDS011;16894;49.456;10.644;2023-04-19T02:13:47;36.07;;;28.57;;
30068;SDS011;16894;49.456;10.644;2023-04-19T02:16:13;32.50;;;29.08;;
30068;SDS011;16894;49.456;10.644;2023-04-19T02:18:39;33.33;;;29.75;;
30068;SDS011;16894;49.456;10.644;2023-04-19T02:23:31;30.10;;;26.85;;
30068;SDS011;16894;49.456;10.644;2023-04-19T02:25:57;31.87;;;28.20;;
30068;SDS011;16894;49.456;10.644;2023-04-19T02:28:23;35.37;;;27.43;;
30068;SDS011;16894;49.456;10.644;2023-04-19T02:30:48;32.07;;;28.67;;
30068;SDS011;16894;49.456;10.644;2023-04-19T02:33:14;49.67;;;30.17;;
30068;SDS011;16894;49.456;10.644;2023-04-19T02:35:40;34.10;;;30.55;;
30068;SDS011;16894;49.456;10.644;2023-04-19T02:38:06;33.78;;;30.17;;
30068;SDS011;16894;49.456;10.644;2023-04-19T02:40:31;34.63;;;31.07;;
30068;SDS011;16894;49.456;10.644;2023-04-19T02:42:57;30.80;;;27.63;;
30068;SDS011;16894;49.456;10.644;2023-04-19T02:45:23;31.42;;;28.13;;
30068;SDS011;16894;49.456;10.644;2023-04-19T02:47:48;31.87;;;28.50;;
30068;SDS011;16894;49.456;10.644;2023-04-19T02:50:15;30.87;;;27.87;;
30068;SDS011;16894;49.456;10.644;2023-04-19T02:52:41;33.30;;;29.92;;
30068;SDS011;16894;49.456;10.644;2023-04-19T02:55:07;39.10;;;31.13;;
30068;SDS011;16894;49.456;10.644;2023-04-19T02:57:33;33.20;;;29.67;;
30068;SDS011;16894;49.456;10.644;2023-04-19T02:59:58;32.07;;;27.93;;
30068;SDS011;16894;49.456;10.644;2023-04-19T03:02:24;35.23;;;31.63;;
30068;SDS011;16894;49.456;10.644;2023-04-19T03:05:09;36.25;;;32.25;;
30068;SDS011;16894;49.456;10.644;2023-04-19T03:07:35;33.65;;;30.17;;
30068;SDS011;16894;49.456;10.644;2023-04-19T03:10:00;38.27;;;30.30;;
30068;SDS011;16894;49.456;10.644;2023-04-19T03:12:26;40.20;;;30.80;;
30068;SDS011;16894;49.456;10.644;2023-04-19T03:15:10;35.28;;;29.55;;
30068;SDS011;16894;49.456;10.644;2023-04-19T03:17:55;40.00;;;30.63;;
30068;SDS011;16894;49.456;10.644;2023-04-19T03:20:39;37.20;;;33.33;;
30068;SDS011;16894;49.456;10.644;2023-04-19T03:23:24;41.50;;;36.67;;
30068;SDS011;16894;49.456;10.644;2023-04-19T03:26:09;50.53;;;43.63;;
30068;SDS011;16894;49.456;10.644;2023-04-19T03:28:53;51.85;;;46.47;;
30068;SDS011;16894;49.456;10.644;2023-04-19T03:31:38;50.10;;;44.83;;
30068;SDS011;16894;49.456;10.644;2023-04-19T03:34:22;49.65;;;44.85;;
30068;SDS011;16894;49.456;10.644;2023-04-19T03:37:06;47.75;;;43.05;;
30068;SDS011;16894;49.456;10.644;2023-04-19T03:39:50;50.05;;;45.33;;
30068;SDS011;16894;49.456;10.644;2023-04-19T03:42:34;51.35;;;46.80;;
30068;SDS011;16894;49.456;10.644;2023-04-19T03:45:18;52.47;;;47.45;;
30068;SDS011;16894;49.456;10.644;2023-04-19T03:48:03;50.30;;;45.75;;
30068;SDS011;16894;49.456;10.644;2023-04-19T03:50:47;58.92;;;53.38;;
30068;SDS011;16894;49.456;10.644;2023-04-19T03:53:31;57.67;;;52.15;;
30068;SDS011;16894;49.456;10.644;2023-04-19T03:56:15;62.90;;;57.17;;
30068;SDS011;16894;49.456;10.644;2023-04-19T03:58:59;64.50;;;59.03;;
30068;SDS011;16894;49.456;10.644;2023-04-19T04:01:44;63.85;;;58.08;;
30068;SDS011;16894;49.456;10.644;2023-04-19T04:04:29;62.08;;;56.83;;
30068;SDS011;16894;49.456;10.644;2023-04-19T04:07:13;59.05;;;53.42;;
30068;SDS011;16894;49.456;10.644;2023-04-19T04:09:57;58.03;;;52.28;;
30068;SDS011;16894;49.456;10.644;2023-04-19T04:12:41;60.72;;;55.55;;
30068;SDS011;16894;49.456;10.644;2023-04-19T04:15:25;66.38;;;60.50;;
30068;SDS011;16894;49.456;10.644;2023-04-19T04:18:09;60.47;;;54.92;;
30068;SDS011;16894;49.456;10.644;2023-04-19T04:20:54;64.40;;;58.75;;
30068;SDS011;16894;49.456;10.644;2023-04-19T04:23:38;61.58;;;55.92;;
30068;SDS011;16894;49.456;10.644;2023-04-19T04:26:23;61.28;;;55.83;;
30068;SDS011;16894;49.456;10.644;2023-04-19T04:29:07;57.33;;;52.35;;
30068;SDS011;16894;49.456;10.644;2023-04-19T04:31:52;62.75;;;56.50;;
30068;SDS011;16894;49.456;10.644;2023-04-19T04:34:37;56.92;;;51.35;;
30068;SDS011;16894;49.456;10.644;2023-04-19T04:37:22;54.47;;;49.15;;
30068;SDS011;16894;49.456;10.644;2023-04-19T04:40:07;55.35;;;50.03;;
30068;SDS011;16894;49.456;10.644;2023-04-19T04:42:51;41.38;;;37.00;;
30068;SDS011;16894;49.456;10.644;2023-04-19T04:45:35;38.70;;;34.67;;
30068;SDS011;16894;49.456;10.644;2023-04-19T04:48:20;44.92;;;32.72;;
30068;SDS011;16894;49.456;10.644;2023-04-19T04:51:04;44.28;;;31.55;;
30068;SDS011;16894;49.456;10.644;2023-04-19T04:53:48;36.65;;;30.27;;
30068;SDS011;16894;49.456;10.644;2023-04-19T04:56:32;37.47;;;30.92;;
30068;SDS011;16894;49.456;10.644;2023-04-19T04:59:16;35.60;;;25.63;;
30068;SDS011;16894;49.456;10.644;2023-04-19T05:02:00;32.97;;;25.42;;
30068;SDS011;16894;49.456;10.644;2023-04-19T05:04:44;28.13;;;23.60;;
30068;SDS011;16894;49.456;10.644;2023-04-19T05:07:29;31.83;;;24.40;;
30068;SDS011;16894;49.456;10.644;2023-04-19T05:10:13;33.60;;;25.13;;
30068;SDS011;16894;49.456;10.644;2023-04-19T05:12:59;39.90;;;26.13;;
30068;SDS011;16894;49.456;10.644;2023-04-19T05:15:44;34.92;;;26.85;;
30068;SDS011;16894;49.456;10.644;2023-04-19T05:18:28;51.30;;;28.10;;
30068;SDS011;16894;49.456;10.644;2023-04-19T05:21:12;35.40;;;25.98;;
30068;SDS011;16894;49.456;10.644;2023-04-19T05:23:56;33.60;;;28.15;;
30068;SDS011;16894;49.456;10.644;2023-04-19T05:26:40;37.67;;;25.13;;
30068;SDS011;16894;49.456;10.644;2023-04-19T05:29:24;35.00;;;24.95;;
30068;SDS011;16894;49.456;10.644;2023-04-19T05:32:08;34.55;;;26.77;;
30068;SDS011;16894;49.456;10.644;2023-04-19T05:34:52;33.72;;;24.17;;
30068;SDS011;16894;49.456;10.644;2023-04-19T05:37:37;31.42;;;23.48;;
30068;SDS011;16894;49.456;10.644;2023-04-19T05:40:21;31.58;;;24.80;;
30068;SDS011;16894;49.456;10.644;2023-04-19T05:43:08;33.88;;;26.13;;
30068;SDS011;16894;49.456;10.644;2023-04-19T05:45:53;33.50;;;26.75;;
30068;SDS011;16894;49.456;10.644;2023-04-19T05:48:38;36.40;;;25.67;;
30068;SDS011;16894;49.456;10.644;2023-04-19T05:51:22;41.97;;;26.55;;
30068;SDS011;16894;49.456;10.644;2023-04-19T05:54:06;37.90;;;29.85;;
30068;SDS011;16894;49.456;10.644;2023-04-19T05:56:55;39.53;;;27.88;;
30068;SDS011;16894;49.456;10.644;2023-04-19T05:59:39;43.13;;;28.38;;
30068;SDS011;16894;49.456;10.644;2023-04-19T06:02:23;34.83;;;30.08;;
30068;SDS011;16894;49.456;10.644;2023-04-19T06:05:07;44.05;;;32.97;;
30068;SDS011;16894;49.456;10.644;2023-04-19T06:07:52;39.13;;;33.10;;
30068;SDS011;16894;49.456;10.644;2023-04-19T06:10:39;43.05;;;37.10;;
30068;SDS011;16894;49.456;10.644;2023-04-19T06:13:23;43.78;;;36.13;;
30068;SDS011;16894;49.456;10.644;2023-04-19T06:16:08;51.63;;;39.65;;
30068;SDS011;16894;49.456;10.644;2023-04-19T06:18:52;51.38;;;38.53;;
30068;SDS011;16894;49.456;10.644;2023-04-19T06:21:36;48.42;;;36.95;;
30068;SDS011;16894;49.456;10.644;2023-04-19T06:24:20;46.45;;;39.72;;
30068;SDS011;16894;49.456;10.644;2023-04-19T06:27:05;52.63;;;42.50;;
30068;SDS011;16894;49.456;10.644;2023-04-19T06:29:49;50.95;;;44.45;;
30068;SDS011;16894;49.456;10.644;2023-04-19T06:32:33;60.17;;;45.30;;
30068;SDS011;16894;49.456;10.644;2023-04-19T06:35:17;106.32;;;63.05;;
30068;SDS011;16894;49.456;10.644;2023-04-19T06:38:02;95.63;;;64.07;;
30068;SDS011;16894;49.456;10.644;2023-04-19T06:40:46;129.68;;;77.80;;
30068;SDS011;16894;49.456;10.644;2023-04-19T06:43:30;88.43;;;73.40;;
30068;SDS011;16894;49.456;10.644;2023-04-19T06:46:15;79.38;;;71.10;;
30068;SDS011;16894;49.456;10.644;2023-04-19T06:48:59;71.22;;;63.88;;
30068;SDS011;16894;49.456;10.644;2023-04-19T06:51:43;81.53;;;72.90;;
30068;SDS011;16894;49.456;10.644;2023-04-19T06:54:28;78.00;;;70.32;;
30068;SDS011;16894;49.456;10.644;2023-04-19T06:57:12;81.60;;;73.78;;
30068;SDS011;16894;49.456;10.644;2023-04-19T06:59:56;76.47;;;68.72;;
30068;SDS011;16894;49.456;10.644;2023-04-19T07:02:41;77.03;;;69.70;;
30068;SDS011;16894;49.456;10.644;2023-04-19T07:05:25;77.80;;;70.72;;
30068;SDS011;16894;49.456;10.644;2023-04-19T07:08:09;77.18;;;69.85;;
30068;SDS011;16894;49.456;10.644;2023-04-19T07:10:53;75.97;;;68.55;;
30068;SDS011;16894;49.456;10.644;2023-04-19T07:13:39;71.90;;;64.43;;
30068;SDS011;16894;49.456;10.644;2023-04-19T07:16:23;77.57;;;69.75;;
30068;SDS011;16894;49.456;10.644;2023-04-19T07:19:07;69.50;;;62.25;;
30068;SDS011;16894;49.456;10.644;2023-04-19T07:21:52;72.95;;;59.78;;
30068;SDS011;16894;49.456;10.644;2023-04-19T07:24:36;61.83;;;54.22;;
30068;SDS011;16894;49.456;10.644;2023-04-19T07:27:23;61.28;;;50.85;;
30068;SDS011;16894;49.456;10.644;2023-04-19T07:30:08;74.45;;;58.25;;
30068;SDS011;16894;49.456;10.644;2023-04-19T07:32:53;73.82;;;62.17;;
30068;SDS011;16894;49.456;10.644;2023-04-19T07:35:38;92.85;;;80.88;;
30068;SDS011;16894;49.456;10.644;2023-04-19T07:38:23;82.35;;;74.10;;
30068;SDS011;16894;49.456;10.644;2023-04-19T07:41:07;80.88;;;72.88;;
30068;SDS011;16894;49.456;10.644;2023-04-19T07:43:51;80.85;;;72.63;;
30068;SDS011;16894;49.456;10.644;2023-04-19T07:46:36;75.70;;;66.90;;
30068;SDS011;16894;49.456;10.644;2023-04-19T07:49:20;70.72;;;63.20;;
30068;SDS011;16894;49.456;10.644;2023-04-19T07:52:06;69.05;;;59.15;;
30068;SDS011;16894;49.456;10.644;2023-04-19T07:54:50;64.82;;;57.85;;
30068;SDS011;16894;49.456;10.644;2023-04-19T07:57:34;65.82;;;58.72;;
30068;SDS011;16894;49.456;10.644;2023-04-19T08:00:19;67.03;;;60.22;;
30068;SDS011;16894;49.456;10.644;2023-04-19T08:03:06;64.70;;;57.60;;
30068;SDS011;16894;49.456;10.644;2023-04-19T08:05:50;59.83;;;52.13;;
30068;SDS011;16894;49.456;10.644;2023-04-19T08:08:35;53.78;;;43.92;;
30068;SDS011;16894;49.456;10.644;2023-04-19T08:11:20;63.25;;;50.33;;
30068;SDS011;16894;49.456;10.644;2023-04-19T08:14:04;61.83;;;54.75;;
30068;SDS011;16894;49.456;10.644;2023-04-19T08:16:49;64.28;;;56.88;;
30068;SDS011;16894;49.456;10.644;2023-04-19T08:19:33;71.35;;;63.70;;
30068;SDS011;16894;49.456;10.644;2023-04-19T08:22:17;61.60;;;54.97;;
30068;SDS011;16894;49.456;10.644;2023-04-19T08:25:03;61.03;;;54.65;;
30068;SDS011;16894;49.456;10.644;2023-04-19T08:27:47;55.63;;;49.88;;
30068;SDS011;16894;49.456;10.644;2023-04-19T08:30:32;65.85;;;58.97;;
30068;SDS011;16894;49.456;10.644;2023-04-19T08:33:16;79.97;;;72.63;;
30068;SDS011;16894;49.456;10.644;2023-04-19T08:36:01;97.93;;;89.28;;
30068;SDS011;16894;49.456;10.644;2023-04-19T08:38:45;107.70;;;98.22;;
30068;SDS011;16894;49.456;10.644;2023-04-19T08:41:31;103.80;;;94.97;;
30068;SDS011;16894;49.456;10.644;2023-04-19T08:44:15;108.28;;;99.45;;
30068;SDS011;16894;49.456;10.644;2023-04-19T08:47:01;105.53;;;96.38;;
30068;SDS011;16894;49.456;10.644;2023-04-19T08:49:45;92.38;;;84.72;;
30068;SDS011;16894;49.456;10.644;2023-04-19T08:52:35;89.35;;;81.78;;
30068;SDS011;16894;49.456;10.644;2023-04-19T08:55:20;86.82;;;79.72;;
30068;SDS011;16894;49.456;10.644;2023-04-19T08:58:04;85.93;;;78.95;;
30068;SDS011;16894;49.456;10.644;2023-04-19T09:00:49;90.25;;;82.72;;
30068;SDS011;16894;49.456;10.644;2023-04-19T09:03:33;83.38;;;76.20;;
30068;SDS011;16894;49.456;10.644;2023-04-19T09:06:18;63.35;;;57.67;;
30068;SDS011;16894;49.456;10.644;2023-04-19T09:09:13;63.20;;;57.50;;
30068;SDS011;16894;49.456;10.644;2023-04-19T09:14:46;41.95;;;37.47;;
30068;SDS011;16894;49.456;10.644;2023-04-19T09:17:30;54.72;;;49.40;;
30068;SDS011;16894;49.456;10.644;2023-04-19T09:20:15;38.42;;;34.65;;
30068;SDS011;16894;49.456;10.644;2023-04-19T09:23:03;48.10;;;39.30;;
30068;SDS011;16894;49.456;10.644;2023-04-19T09:26:00;38.50;;;32.80;;
30068;SDS011;16894;49.456;10.644;2023-04-19T09:28:58;31.30;;;27.92;;
30068;SDS011;16894;49.456;10.644;2023-04-19T09:31:54;43.05;;;29.35;;
30068;SDS011;16894;49.456;10.644;2023-04-19T09:34:52;38.80;;;30.73;;
30068;SDS011;16894;49.456;10.644;2023-04-19T09:37:38;37.28;;;30.15;;
30068;SDS011;16894;49.456;10.644;2023-04-19T09:40:24;38.25;;;33.80;;
30068;SDS011;16894;49.456;10.644;2023-04-19T09:43:10;33.22;;;29.77;;
30068;SDS011;16894;49.456;10.644;2023-04-19T09:45:55;32.92;;;29.63;;
30068;SDS011;16894;49.456;10.644;2023-04-19T09:48:39;32.58;;;27.63;;
30068;SDS011;16894;49.456;10.644;2023-04-19T09:51:23;35.67;;;31.80;;
30068;SDS011;16894;49.456;10.644;2023-04-19T09:54:23;35.33;;;31.95;;
30068;SDS011;16894;49.456;10.644;2023-04-19T09:57:09;37.63;;;34.17;;
30068;SDS011;16894;49.456;10.644;2023-04-19T09:59:35;47.33;;;42.90;;
30068;SDS011;16894;49.456;10.644;2023-04-19T10:02:01;44.37;;;40.63;;
30068;SDS011;16894;49.456;10.644;2023-04-19T10:04:28;43.40;;;39.67;;
30068;SDS011;16894;49.456;10.644;2023-04-19T10:06:54;38.65;;;34.92;;
30068;SDS011;16894;49.456;10.644;2023-04-19T10:09:20;40.40;;;36.03;;
30068;SDS011;16894;49.456;10.644;2023-04-19T10:11:47;33.88;;;29.90;;
30068;SDS011;16894;49.456;10.644;2023-04-19T10:14:14;35.58;;;29.13;;
30068;SDS011;16894;49.456;10.644;2023-04-19T10:16:41;32.80;;;28.80;;
30068;SDS011;16894;49.456;10.644;2023-04-19T10:19:10;31.70;;;28.33;;
30068;SDS011;16894;49.456;10.644;2023-04-19T10:21:37;27.02;;;24.55;;
30068;SDS011;16894;49.456;10.644;2023-04-19T10:24:05;26.08;;;23.67;;
30068;SDS011;16894;49.456;10.644;2023-04-19T10:27:04;20.63;;;18.02;;
30068;SDS011;16894;49.456;10.644;2023-04-19T10:32:36;28.35;;;19.88;;
30068;SDS011;16894;49.456;10.644;2023-04-19T10:35:11;22.77;;;19.35;;
30068;SDS011;16894;49.456;10.644;2023-04-19T10:40:54;25.95;;;22.63;;
30068;SDS011;16894;49.456;10.644;2023-04-19T10:43:25;23.40;;;19.17;;
30068;SDS011;16894;49.456;10.644;2023-04-19T10:46:05;23.60;;;18.98;;
30068;SDS011;16894;49.456;10.644;2023-04-19T10:48:31;38.17;;;25.33;;
30068;SDS011;16894;49.456;10.644;2023-04-19T10:51:10;36.72;;;21.00;;
30068;SDS011;16894;49.456;10.644;2023-04-19T10:53:44;22.65;;;17.67;;
30068;SDS011;16894;49.456;10.644;2023-04-19T10:59:24;23.70;;;18.17;;
30068;SDS011;16894;49.456;10.644;2023-04-19T11:01:54;22.77;;;20.35;;
30068;SDS011;16894;49.456;10.644;2023-04-19T11:07:14;24.75;;;20.23;;
30068;SDS011;16894;49.456;10.644;2023-04-19T11:09:45;24.73;;;22.08;;
30068;SDS011;16894;49.456;10.644;2023-04-19T11:12:12;25.73;;;23.25;;
30068;SDS011;16894;49.456;10.644;2023-04-19T11:14:47;27.58;;;24.55;;
30068;SDS011;16894;49.456;10.644;2023-04-19T11:17:30;28.50;;;25.73;;
30068;SDS011;16894;49.456;10.644;2023-04-19T11:20:06;25.08;;;22.38;;
30068;SDS011;16894;49.456;10.644;2023-04-19T11:22:40;25.90;;;23.58;;
30068;SDS011;16894;49.456;10.644;2023-04-19T11:27:47;21.80;;;19.40;;
30068;SDS011;16894;49.456;10.644;2023-04-19T11:30:17;24.02;;;18.40;;
30068;SDS011;16894;49.456;10.644;2023-04-19T11:32:48;20.67;;;16.25;;
30068;SDS011;16894;49.456;10.644;2023-04-19T11:35:19;24.13;;;16.65;;
30068;SDS011;16894;49.456;10.644;2023-04-19T11:37:45;19.90;;;16.63;;
30068;SDS011;16894;49.456;10.644;2023-04-19T11:40:14;61.13;;;19.67;;
30068;SDS011;16894;49.456;10.644;2023-04-19T11:42:41;21.17;;;18.25;;
30068;SDS011;16894;49.456;10.644;2023-04-19T11:45:08;20.27;;;16.92;;
30068;SDS011;16894;49.456;10.644;2023-04-19T11:47:34;20.05;;;17.33;;
30068;SDS011;16894;49.456;10.644;2023-04-19T11:53:09;20.27;;;15.73;;
30068;SDS011;16894;49.456;10.644;2023-04-19T11:55:52;22.15;;;17.50;;
30068;SDS011;16894;49.456;10.644;2023-04-19T12:01:02;18.13;;;16.23;;
30068;SDS011;16894;49.456;10.644;2023-04-19T12:03:54;20.52;;;14.93;;
30068;SDS011;16894;49.456;10.644;2023-04-19T12:08:46;21.95;;;14.60;;
30068;SDS011;16894;49.456;10.644;2023-04-19T12:11:16;23.17;;;15.63;;
30068;SDS011;16894;49.456;10.644;2023-04-19T12:13:43;16.77;;;15.02;;
30068;SDS011;16894;49.456;10.644;2023-04-19T12:16:09;19.15;;;16.65;;
30068;SDS011;16894;49.456;10.644;2023-04-19T12:21:22;19.08;;;17.10;;
30068;SDS011;16894;49.456;10.644;2023-04-19T12:23:56;17.58;;;15.98;;
30068;SDS011;16894;49.456;10.644;2023-04-19T12:26:24;21.90;;;16.48;;
30068;SDS011;16894;49.456;10.644;2023-04-19T12:28:53;18.35;;;16.42;;
30068;SDS011;16894;49.456;10.644;2023-04-19T12:31:19;14.27;;;12.85;;
30068;SDS011;16894;49.456;10.644;2023-04-19T12:33:45;12.15;;;10.93;;
30068;SDS011;16894;49.456;10.644;2023-04-19T12:36:11;12.82;;;11.38;;
30068;SDS011;16894;49.456;10.644;2023-04-19T12:38:37;10.80;;;9.77;;
30068;SDS011;16894;49.456;10.644;2023-04-19T12:41:03;12.32;;;10.10;;
30068;SDS011;16894;49.456;10.644;2023-04-19T12:43:29;11.73;;;10.65;;
30068;SDS011;16894;49.456;10.644;2023-04-19T12:45:56;10.88;;;9.57;;
30068;SDS011;16894;49.456;10.644;2023-04-19T12:48:22;10.73;;;9.73;;
30068;SDS011;16894;49.456;10.644;2023-04-19T12:50:51;10.32;;;9.43;;
30068;SDS011;16894;49.456;10.644;2023-04-19T12:53:17;16.38;;;9.40;;
30068;SDS011;16894;49.456;10.644;2023-04-19T12:55:43;12.27;;;9.73;;
30068;SDS011;16894;49.456;10.644;2023-04-19T12:58:20;10.68;;;9.55;;
30068;SDS011;16894;49.456;10.644;2023-04-19T13:00:47;9.52;;;8.48;;
30068;SDS011;16894;49.456;10.644;2023-04-19T13:03:13;9.73;;;8.90;;
30068;SDS011;16894;49.456;10.644;2023-04-19T13:05:39;9.45;;;8.63;;
30068;SDS011;16894;49.456;10.644;2023-04-19T13:08:05;10.18;;;8.85;;
30068;SDS011;16894;49.456;10.644;2023-04-19T13:10:30;9.60;;;8.57;;
30068;SDS011;16894;49.456;10.644;2023-04-19T13:12:56;9.57;;;8.70;;
30068;SDS011;16894;49.456;10.644;2023-04-19T13:15:23;8.65;;;8.05;;
30068;SDS011;16894;49.456;10.644;2023-04-19T13:17:49;9.00;;;8.32;;
30068;SDS011;16894;49.456;10.644;2023-04-19T13:20:16;7.72;;;7.03;;
30068;SDS011;16894;49.456;10.644;2023-04-19T13:22:43;7.43;;;6.43;;
30068;SDS011;16894;49.456;10.644;2023-04-19T13:25:08;11.27;;;10.20;;
30068;SDS011;16894;49.456;10.644;2023-04-19T13:27:34;11.40;;;10.50;;
30068;SDS011;16894;49.456;10.644;2023-04-19T13:30:00;12.20;;;11.27;;
30068;SDS011;16894;49.456;10.644;2023-04-19T13:32:25;13.10;;;12.10;;
30068;SDS011;16894;49.456;10.644;2023-04-19T13:34:51;12.70;;;11.80;;
30068;SDS011;16894;49.456;10.644;2023-04-19T13:37:16;13.27;;;12.10;;
30068;SDS011;16894;49.456;10.644;2023-04-19T13:39:42;11.38;;;10.38;;
30068;SDS011;16894;49.456;10.644;2023-04-19T13:42:08;12.27;;;11.38;;
30068;SDS011;16894;49.456;10.644;2023-04-19T13:44:36;12.95;;;11.95;;
30068;SDS011;16894;49.456;10.644;2023-04-19T13:47:01;17.23;;;15.93;;
30068;SDS011;16894;49.456;10.644;2023-04-19T13:49:27;18.42;;;17.05;;
30068;SDS011;16894;49.456;10.644;2023-04-19T13:51:53;19.20;;;17.70;;
30068;SDS011;16894;49.456;10.644;2023-04-19T13:54:19;19.45;;;18.15;;
30068;SDS011;16894;49.456;10.644;2023-04-19T13:56:45;19.90;;;18.65;;
30068;SDS011;16894;49.456;10.644;2023-04-19T13:59:11;18.88;;;15.50;;
30068;SDS011;16894;49.456;10.644;2023-04-19T14:01:36;42.42;;;16.67;;
30068;SDS011;16894;49.456;10.644;2023-04-19T14:04:02;25.63;;;13.43;;
30068;SDS011;16894;49.456;10.644;2023-04-19T14:06:28;16.83;;;11.05;;
30068;SDS011;16894;49.456;10.644;2023-04-19T14:08:53;9.70;;;8.90;;
30068;SDS011;16894;49.456;10.644;2023-04-19T14:11:19;10.63;;;9.73;;
30068;SDS011;16894;49.456;10.644;2023-04-19T14:13:45;10.55;;;9.65;;
30068;SDS011;16894;49.456;10.644;2023-04-19T14:16:12;9.00;;;8.32;;
30068;SDS011;16894;49.456;10.644;2023-04-19T14:18:38;10.70;;;9.68;;
30068;SDS011;16894;49.456;10.644;2023-04-19T14:21:04;12.38;;;11.40;;
30068;SDS011;16894;49.456;10.644;2023-04-19T14:23:29;13.23;;;12.23;;
30068;SDS011;16894;49.456;10.644;2023-04-19T14:25:56;12.90;;;11.73;;
30068;SDS011;16894;49.456;10.644;2023-04-19T14:28:22;10.02;;;9.23;;
30068;SDS011;16894;49.456;10.644;2023-04-19T14:30:47;12.10;;;8.67;;
30068;SDS011;16894;49.456;10.644;2023-04-19T14:33:13;11.70;;;10.70;;
30068;SDS011;16894;49.456;10.644;2023-04-19T14:35:39;12.90;;;11.70;;
30068;SDS011;16894;49.456;10.644;2023-04-19T14:38:05;14.27;;;13.07;;
30068;SDS011;16894;49.456;10.644;2023-04-19T14:40:31;13.77;;;12.60;;
30068;SDS011;16894;49.456;10.644;2023-04-19T14:42:57;15.07;;;11.77;;
30068;SDS011;16894;49.456;10.644;2023-04-19T14:45:22;13.47;;;11.57;;
30068;SDS011;16894;49.456;10.644;2023-04-19T14:47:48;10.65;;;9.60;;
30068;SDS011;16894;49.456;10.644;2023-04-19T14:50:14;11.40;;;10.50;;
30068;SDS011;16894;49.456;10.644;2023-04-19T14:52:40;13.80;;;11.95;;
30068;SDS011;16894;49.456;10.644;2023-04-19T14:55:06;15.40;;;10.73;;
30068;SDS011;16894;49.456;10.644;2023-04-19T14:59:57;13.45;;;12.02;;
30068;SDS011;16894;49.456;10.644;2023-04-19T15:02:25;15.98;;;13.45;;
30068;SDS011;16894;49.456;10.644;2023-04-19T15:07:17;17.92;;;13.93;;
30068;SDS011;16894;49.456;10.644;2023-04-19T15:09:43;13.68;;;12.68;;
30068;SDS011;16894;49.456;10.644;2023-04-19T15:12:08;12.10;;;10.87;;
30068;SDS011;16894;49.456;10.644;2023-04-19T15:14:34;17.00;;;13.83;;
30068;SDS011;16894;49.456;10.644;2023-04-19T15:16:59;15.27;;;14.10;;
30068;SDS011;16894;49.456;10.644;2023-04-19T15:19:25;16.67;;;15.02;;
30068;SDS011;16894;49.456;10.644;2023-04-19T15:21:53;16.23;;;14.82;;
30068;SDS011;16894;49.456;10.644;2023-04-19T15:24:19;15.13;;;13.87;;
30068;SDS011;16894;49.456;10.644;2023-04-19T15:26:44;16.10;;;14.47;;
30068;SDS011;16894;49.456;10.644;2023-04-19T15:29:10;17.87;;;12.43;;
30068;SDS011;16894;49.456;10.644;2023-04-19T15:31:36;13.17;;;11.93;;
30068;SDS011;16894;49.456;10.644;2023-04-19T15:34:01;14.67;;;13.23;;
30068;SDS011;16894;49.456;10.644;2023-04-19T15:36:27;12.65;;;11.68;;